OAKB/KBL METAR and TAF weather

Enter ICAO airport designator
Station Type Date Time Source
OAKB METAR 2020/01/23 21:02 UTC NOAA

OAKB 232102Z 31005KT 6000 NSC M07/M11 Q1025 RMK A3029 WHT


Station Type Date Time Source
OAKB Decoded METAR 2020/01/23 21:02 UTC NOAA

Kabul Airport, Afghanistan (OAKB) 34-38N 069-12E
Jan 23, 2020 - 04:02 PM EST / 2020.01.23 2102 UTC
Wind: from the NW (310 degrees) at 6 MPH (5 KT):0
Visibility: 3 mile(s):0
Temperature: 19 F (-7 C)
Windchill: 10 F (-12 C):1
Dew Point: 12 F (-11 C)
Relative Humidity: 73%
Pressure (altimeter): 30.27 in. Hg (1025 hPa)
ob: OAKB 232102Z 31005KT 6000 NSC M07/M11 Q1025 RMK A3029 WHT
cycle: 21

Station Type Date Time Source
OAKB TAF 2020/01/23 18:05 UTC NOAA

TAF OAKB 231705Z 2318/2418 VRB02KT 2500 FU NSC
BECMG 2318/2319 SCT100
BECMG 2323/2324 BKN100
TEMPO 2401/2405 1500
BECMG 2406/2408 1500 -SN BR BKN010 OVC030
TEMPO 2410/2414 1000 -SN BR BKN010 OVC020
BECMG 2416/2418 1000 -SN BR OVC015

Example: see airport list